Yoder, Indiana
Current Conditions -  °F | °C
As of 5:54 AM on Sunday 21 Dec 2014 (Local Time) from KFWA Reporting Station
Overcast Overcast  
Wind Chill: 29°   Ceiling: 6000
Heat Index: 29°   Visibility: 8mi
Dew Point: 26°   Wind: 3mph
Humidity: 89%   Direction: 170°S
Pressure: 30.29"   Gusts: NA
Location:  40.93°N, 85.18°W
Report Text: KFWA 211054Z 17003KT 8SM OVC060 M02/M03 A3029 RMK AO2 SLP267 T10171033
Loading
Personal Weather Stations






























Interactive Weather Map New forecast layout! Learn more

10-Day Weather Forecast

Advertisements
Track Severe Weather on mobile